createdAt,value
2017-10-02T00:00:28.107Z,23.10
2017-10-02T00:02:34.784Z,23.30
2017-10-02T00:04:40.172Z,23.32
2017-10-02T00:06:47.952Z,23.26
2017-10-02T00:08:57.086Z,23.24
2017-10-02T00:11:08.318Z,23.35
2017-10-02T00:13:17.652Z,23.49
2017-10-02T00:15:35.413Z,23.42
2017-10-02T00:17:43.743Z,23.54
2017-10-02T00:19:51.058Z,23.24
2017-10-02T00:21:59.563Z,23.39
2017-10-02T00:24:08.523Z,23.18
2017-10-02T00:26:18.792Z,22.94
2017-10-02T00:28:26.641Z,23.02
2017-10-02T00:30:36.206Z,22.81
2017-10-02T00:32:46.451Z,22.65
2017-10-02T00:34:51.989Z,22.70
2017-10-02T00:37:00.851Z,22.77
2017-10-02T00:39:07.374Z,22.76
2017-10-02T00:41:13.998Z,22.75
2017-10-02T00:43:20.786Z,22.72
2017-10-02T00:45:27.137Z,22.48
2017-10-02T00:47:42.829Z,22.42
2017-10-02T00:49:52.214Z,22.38
2017-10-02T00:52:03.125Z,22.34
2017-10-02T00:54:17.145Z,22.30
2017-10-02T00:56:23.304Z,22.29
2017-10-02T00:58:32.137Z,22.25
2017-10-02T01:00:38.114Z,22.43
2017-10-02T01:02:44.567Z,22.29
2017-10-02T01:04:54.395Z,22.20
2017-10-02T01:07:09.493Z,22.27
2017-10-02T01:09:17.137Z,22.51
2017-10-02T01:11:28.369Z,22.40
2017-10-02T01:13:38.694Z,22.43
2017-10-02T01:15:54.127Z,22.57
2017-10-02T01:20:44.608Z,22.34
2017-10-02T01:22:57.283Z,22.23
2017-10-02T01:25:23.640Z,22.19
2017-10-02T01:27:36.877Z,22.37
2017-10-02T01:29:46.179Z,22.35
2017-10-02T01:31:52.973Z,22.38
2017-10-02T01:33:59.201Z,22.60
2017-10-02T01:36:05.914Z,22.73
2017-10-02T01:38:13.305Z,22.62
2017-10-02T01:40:21.571Z,22.79
2017-10-02T01:42:30.011Z,23.00
2017-10-02T01:44:37.023Z,22.97
2017-10-02T01:46:48.551Z,22.77
2017-10-02T01:48:54.685Z,22.88
2017-10-02T01:51:00.814Z,22.69
2017-10-02T01:53:13.107Z,22.81
2017-10-02T01:55:25.095Z,23.15
2017-10-02T01:57:38.239Z,23.05
2017-10-02T01:59:46.151Z,23.07
2017-10-02T02:01:57.706Z,23.23
2017-10-02T02:04:06.854Z,22.73
2017-10-02T02:06:12.700Z,22.99
2017-10-02T02:08:18.599Z,22.93
2017-10-02T02:12:48.614Z,22.78
2017-10-02T02:14:54.230Z,22.89
2017-10-02T02:17:00.207Z,22.81
2017-10-02T02:19:09.033Z,22.95
2017-10-02T02:21:15.434Z,22.99
2017-10-02T02:23:27.034Z,23.14
2017-10-02T02:25:38.759Z,23.14
2017-10-02T02:27:44.877Z,23.31
2017-10-02T02:29:55.285Z,23.41
2017-10-02T02:32:01.336Z,23.38
2017-10-02T02:34:08.821Z,23.22
2017-10-02T02:36:14.623Z,23.19
2017-10-02T02:38:30.132Z,23.30
2017-10-02T02:40:36.639Z,23.31
2017-10-02T02:42:42.649Z,23.39
2017-10-02T02:44:53.144Z,23.21
2017-10-02T02:46:58.944Z,23.13
2017-10-02T02:49:05.730Z,23.07
2017-10-02T02:51:12.553Z,23.10
2017-10-02T02:53:17.642Z,23.03
2017-10-02T02:55:23.998Z,23.15
2017-10-02T02:57:30.453Z,23.15
2017-10-02T02:59:40.948Z,23.05
2017-10-02T03:01:47.101Z,23.17
2017-10-02T03:03:54.620Z,23.22
2017-10-02T03:06:03.531Z,23.11
2017-10-02T03:08:09.922Z,23.18
2017-10-02T03:10:16.497Z,23.29
2017-10-02T03:12:23.010Z,23.33
2017-10-02T03:14:30.873Z,23.35
2017-10-02T03:16:42.376Z,23.32
2017-10-02T03:18:48.780Z,23.37
2017-10-02T03:21:02.645Z,23.17
2017-10-02T03:23:11.796Z,23.36
2017-10-02T03:25:20.405Z,23.39
2017-10-02T03:27:27.984Z,23.46
2017-10-02T03:29:34.243Z,23.37
2017-10-02T03:31:40.088Z,23.15
2017-10-02T03:33:45.759Z,23.06
2017-10-02T03:35:53.439Z,22.90
2017-10-02T03:37:59.406Z,22.81
2017-10-02T03:40:05.077Z,22.63
2017-10-02T03:42:11.107Z,22.76
2017-10-02T03:44:18.807Z,22.66
2017-10-02T03:46:27.167Z,22.86
2017-10-02T03:48:33.216Z,22.97
2017-10-02T03:50:40.105Z,23.14
2017-10-02T03:52:48.245Z,22.86
2017-10-02T03:54:53.624Z,22.85
2017-10-02T03:56:58.938Z,23.02
2017-10-02T03:59:05.484Z,23.03
2017-10-02T04:01:12.544Z,23.08
2017-10-02T04:03:19.354Z,23.13
2017-10-02T04:05:27.545Z,23.07
2017-10-02T04:07:34.138Z,23.09
2017-10-02T04:09:39.711Z,23.01
2017-10-02T04:11:46.212Z,23.00
2017-10-02T04:13:52.526Z,23.00
2017-10-02T04:15:57.900Z,23.19
2017-10-02T04:18:08.439Z,23.17
2017-10-02T04:20:17.585Z,23.17
2017-10-02T04:22:23.757Z,22.83
2017-10-02T04:24:34.013Z,22.88
2017-10-02T04:26:44.321Z,22.76
2017-10-02T04:28:50.102Z,22.69
2017-10-02T04:30:55.771Z,22.56
2017-10-02T04:33:01.414Z,22.73
2017-10-02T04:35:11.273Z,22.60
2017-10-02T04:37:17.814Z,22.52
2017-10-02T04:39:24.466Z,22.79
2017-10-02T04:41:36.375Z,22.67
2017-10-02T04:43:42.535Z,22.73
2017-10-02T04:45:49.079Z,22.67
2017-10-02T04:47:55.386Z,22.79
2017-10-02T04:50:05.103Z,22.85
2017-10-02T04:52:10.540Z,22.67
2017-10-02T04:54:17.108Z,22.70
2017-10-02T04:56:28.112Z,22.87
2017-10-02T04:58:39.223Z,22.81
2017-10-02T05:00:50.514Z,22.96
2017-10-02T05:03:01.381Z,23.16
2017-10-02T05:05:07.143Z,23.03
2017-10-02T05:07:14.817Z,23.22
2017-10-02T05:09:23.737Z,23.18
2017-10-02T05:11:30.655Z,23.01
2017-10-02T05:13:36.302Z,23.22
2017-10-02T05:15:43.592Z,23.25
2017-10-02T05:17:50.014Z,22.96
2017-10-02T05:19:58.606Z,22.90
2017-10-02T05:22:04.612Z,22.92
2017-10-02T05:24:10.131Z,23.03
2017-10-02T05:26:16.860Z,22.94
2017-10-02T05:28:22.663Z,23.26
2017-10-02T05:30:28.747Z,22.78
2017-10-02T05:32:35.185Z,23.04
2017-10-02T05:34:46.231Z,23.06
2017-10-02T05:36:52.295Z,22.99
2017-10-02T05:38:59.347Z,22.43
2017-10-02T05:41:07.939Z,22.20
2017-10-02T05:43:13.205Z,22.08
2017-10-02T05:45:19.789Z,22.00
2017-10-02T05:47:25.836Z,21.95
2017-10-02T05:49:32.868Z,22.10
2017-10-02T05:51:41.193Z,22.11
2017-10-02T05:53:50.085Z,22.13
2017-10-02T05:55:56.636Z,21.69
2017-10-02T05:58:02.392Z,21.96
2017-10-02T06:00:08.131Z,22.01
2017-10-02T06:02:14.019Z,22.00
2017-10-02T06:04:22.778Z,22.12
2017-10-02T06:06:33.105Z,22.44
2017-10-02T06:08:38.600Z,22.44
2017-10-02T06:10:44.614Z,22.50
2017-10-02T06:12:51.301Z,22.40
2017-10-02T06:14:57.530Z,22.41
2017-10-02T06:17:03.941Z,22.58
2017-10-02T06:19:10.047Z,22.98
2017-10-02T06:21:17.080Z,23.15
2017-10-02T06:23:23.374Z,23.18
2017-10-02T06:25:31.248Z,23.26
2017-10-02T06:27:38.883Z,23.23
2017-10-02T06:29:44.472Z,23.19
2017-10-02T06:31:53.309Z,23.36
2017-10-02T06:34:01.112Z,22.98
2017-10-02T06:36:06.515Z,22.98
2017-10-02T06:38:11.965Z,23.27
2017-10-02T06:40:26.018Z,23.32
2017-10-02T06:42:35.090Z,23.37
2017-10-02T06:44:44.468Z,23.28
2017-10-02T06:46:54.221Z,23.15
2017-10-02T06:49:03.834Z,23.06
2017-10-02T06:51:12.427Z,22.95
2017-10-02T06:53:23.773Z,23.19
2017-10-02T06:55:31.555Z,23.33
2017-10-02T06:57:38.485Z,22.87
2017-10-02T06:59:45.573Z,22.73
2017-10-02T07:01:52.906Z,22.92
2017-10-02T07:03:59.215Z,22.97
2017-10-02T07:06:11.509Z,23.05
2017-10-02T07:08:26.828Z,23.12
2017-10-02T07:10:37.242Z,23.22
2017-10-02T07:12:44.545Z,23.33
2017-10-02T07:14:50.890Z,23.19
2017-10-02T07:17:00.093Z,23.40
2017-10-02T07:19:05.880Z,23.49
2017-10-02T07:21:13.256Z,23.55
2017-10-02T07:23:20.515Z,23.47
2017-10-02T07:25:34.950Z,23.54
2017-10-02T07:27:40.532Z,23.63
2017-10-02T07:29:46.346Z,23.26
2017-10-02T07:31:52.618Z,23.30
2017-10-02T07:33:58.239Z,23.43
2017-10-02T07:36:11.907Z,23.35
2017-10-02T07:38:23.516Z,23.46
2017-10-02T07:40:29.489Z,23.52
2017-10-02T07:42:36.130Z,23.47
2017-10-02T07:44:45.962Z,23.54
2017-10-02T07:46:51.493Z,23.59
2017-10-02T07:48:58.212Z,23.68
2017-10-02T07:51:04.480Z,23.68
2017-10-02T07:53:10.004Z,23.44
2017-10-02T07:55:18.615Z,23.40
2017-10-02T07:57:33.719Z,23.47
2017-10-02T07:59:42.279Z,23.54
2017-10-02T08:01:52.149Z,23.39
2017-10-02T08:04:03.007Z,23.42
2017-10-02T08:06:10.671Z,23.46
2017-10-02T08:08:17.257Z,23.43
2017-10-02T08:10:28.387Z,23.37
2017-10-02T08:12:36.853Z,23.18
2017-10-02T08:14:43.751Z,23.24
2017-10-02T08:16:50.766Z,23.25
2017-10-02T08:19:02.785Z,23.19
2017-10-02T08:21:10.499Z,23.15
2017-10-02T08:23:19.371Z,23.17
2017-10-02T08:25:27.303Z,23.07
2017-10-02T08:27:36.176Z,23.21
2017-10-02T08:29:45.645Z,23.19
2017-10-02T08:31:54.996Z,23.10
2017-10-02T08:34:03.241Z,23.11
2017-10-02T08:36:09.553Z,23.11
2017-10-02T08:38:15.907Z,23.06
2017-10-02T08:40:29.271Z,23.18
2017-10-02T08:42:36.568Z,23.05
2017-10-02T08:44:42.817Z,22.99
2017-10-02T08:46:54.314Z,23.28
2017-10-02T08:49:07.896Z,23.34
2017-10-02T08:51:19.933Z,23.21
2017-10-02T08:53:37.717Z,23.34
2017-10-02T08:55:46.444Z,23.20
2017-10-02T08:58:40.414Z,23.39
2017-10-02T09:06:20.205Z,23.10
2017-10-02T09:08:40.005Z,22.95
2017-10-02T09:10:46.749Z,22.82
2017-10-02T09:12:54.745Z,22.83
2017-10-02T09:15:09.661Z,22.97
2017-10-02T09:17:16.442Z,22.93
2017-10-02T09:19:26.755Z,22.99
2017-10-02T09:24:16.330Z,23.10
2017-10-02T09:28:51.084Z,23.37
2017-10-02T09:30:59.775Z,23.31
2017-10-02T09:33:12.377Z,23.19
2017-10-02T09:35:21.704Z,23.47
2017-10-02T09:37:32.467Z,23.10
2017-10-02T09:39:41.493Z,23.08
2017-10-02T09:41:55.362Z,23.09
2017-10-02T09:44:02.949Z,23.00
2017-10-02T09:46:09.496Z,22.91
2017-10-02T09:48:24.117Z,22.95
2017-10-02T09:53:40.696Z,22.93
2017-10-02T09:55:46.029Z,22.86
2017-10-02T09:57:52.662Z,23.13
2017-10-02T09:59:58.991Z,23.24
2017-10-02T10:02:04.463Z,23.24
2017-10-02T10:04:10.235Z,23.32
2017-10-02T10:06:16.867Z,23.40
2017-10-02T10:08:22.550Z,23.31
2017-10-02T10:10:28.867Z,23.06
2017-10-02T10:12:35.216Z,23.27
2017-10-02T10:14:40.834Z,23.32
2017-10-02T10:16:47.095Z,23.22
2017-10-02T10:18:53.346Z,23.46
2017-10-02T10:20:59.942Z,23.42
2017-10-02T10:23:06.151Z,23.55
2017-10-02T10:25:12.056Z,23.50
2017-10-02T10:27:18.992Z,23.46
2017-10-02T10:29:25.231Z,23.30
2017-10-02T10:31:32.290Z,23.27
2017-10-02T10:33:38.425Z,23.15
2017-10-02T10:35:44.707Z,23.16
2017-10-02T10:37:50.712Z,22.93
2017-10-02T10:39:58.322Z,22.91
2017-10-02T10:42:05.104Z,22.95
2017-10-02T10:44:10.858Z,22.89
2017-10-02T10:46:17.432Z,22.68
2017-10-02T10:48:24.872Z,22.50
2017-10-02T10:50:31.875Z,22.41
2017-10-02T10:52:38.081Z,22.57
2017-10-02T10:54:46.273Z,22.65
2017-10-02T10:56:52.319Z,22.68
2017-10-02T10:58:57.828Z,22.42
2017-10-02T11:01:03.477Z,22.43
2017-10-02T11:03:09.138Z,22.48
2017-10-02T11:05:15.172Z,22.54
2017-10-02T11:07:21.533Z,22.55
2017-10-02T11:09:28.155Z,22.50
2017-10-02T11:11:34.431Z,22.63
2017-10-02T11:13:40.127Z,22.70
2017-10-02T11:15:47.854Z,22.48
2017-10-02T11:17:54.697Z,22.54
2017-10-02T11:20:00.832Z,22.62
2017-10-02T11:22:07.872Z,22.58
2017-10-02T11:24:15.775Z,22.59
2017-10-02T11:26:23.874Z,22.46
2017-10-02T11:28:33.270Z,22.42
2017-10-02T11:30:40.916Z,22.42
2017-10-02T11:32:47.446Z,22.46
2017-10-02T11:34:54.930Z,22.48
2017-10-02T11:37:02.709Z,22.50
2017-10-02T11:39:13.958Z,22.59
2017-10-02T11:41:25.313Z,22.64
2017-10-02T11:43:40.349Z,22.39
2017-10-02T11:45:47.887Z,22.50
2017-10-02T11:47:55.890Z,22.54
2017-10-02T11:50:01.457Z,22.43
2017-10-02T11:52:07.939Z,22.45
2017-10-02T11:54:17.939Z,22.57
2017-10-02T11:56:24.386Z,22.46
2017-10-02T11:58:33.587Z,22.48
2017-10-02T12:00:40.983Z,22.45
2017-10-02T12:02:46.467Z,22.54
2017-10-02T12:04:52.077Z,22.37
2017-10-02T12:06:57.806Z,22.27
2017-10-02T12:09:04.482Z,22.41
2017-10-02T12:11:10.436Z,22.67
2017-10-02T12:13:17.122Z,22.64
2017-10-02T12:15:23.173Z,22.71
2017-10-02T12:17:29.572Z,22.58
2017-10-02T12:19:37.159Z,22.59
2017-10-02T12:21:46.237Z,22.65
2017-10-02T12:23:53.787Z,22.68
2017-10-02T12:26:06.111Z,22.66
2017-10-02T12:28:14.255Z,22.54
2017-10-02T12:30:28.172Z,22.64
2017-10-02T12:32:37.894Z,22.65
2017-10-02T12:35:23.856Z,22.66
2017-10-02T12:37:39.850Z,22.51
2017-10-02T12:40:02.878Z,22.47
2017-10-02T12:42:08.994Z,22.46
2017-10-02T12:44:30.849Z,22.56
2017-10-02T12:46:44.775Z,22.38
2017-10-02T12:48:51.550Z,22.34
2017-10-02T12:50:58.196Z,22.45
2017-10-02T12:53:08.217Z,22.38
2017-10-02T12:55:25.727Z,22.50
2017-10-02T12:57:34.221Z,22.57
2017-10-02T12:59:41.353Z,22.67
2017-10-02T13:01:46.850Z,22.50
2017-10-02T13:03:54.063Z,22.43
2017-10-02T13:05:59.458Z,22.55
2017-10-02T13:08:04.944Z,22.63
2017-10-02T13:10:12.419Z,22.49
2017-10-02T13:12:18.514Z,22.66
2017-10-02T13:14:27.125Z,22.65
2017-10-02T13:16:35.625Z,22.58
2017-10-02T13:18:41.850Z,22.90
2017-10-02T13:20:47.505Z,23.06
2017-10-02T13:22:53.151Z,23.00
2017-10-02T13:25:00.389Z,22.86
2017-10-02T13:27:06.760Z,23.01
2017-10-02T13:29:12.221Z,23.13
2017-10-02T13:31:18.721Z,22.90
2017-10-02T13:33:25.379Z,22.56
2017-10-02T13:35:34.276Z,22.89
2017-10-02T13:37:41.108Z,23.10
2017-10-02T13:39:46.809Z,23.08
2017-10-02T13:41:52.895Z,23.10
2017-10-02T13:44:05.810Z,23.11
2017-10-02T13:46:11.500Z,22.93
2017-10-02T13:48:18.142Z,22.93
2017-10-02T13:50:25.549Z,22.99
2017-10-02T13:52:32.041Z,22.93
2017-10-02T13:54:38.062Z,22.92
2017-10-02T13:56:43.752Z,23.15
2017-10-02T13:58:50.946Z,23.08
2017-10-02T14:00:56.978Z,23.01
2017-10-02T14:03:03.094Z,23.14
2017-10-02T14:05:10.243Z,22.98
2017-10-02T14:07:21.630Z,22.93
2017-10-02T14:09:29.931Z,23.00
2017-10-02T14:13:55.748Z,23.02
2017-10-02T14:16:04.428Z,22.91
2017-10-02T14:18:11.190Z,22.87
2017-10-02T14:20:23.176Z,23.00
2017-10-02T14:22:28.772Z,22.78
2017-10-02T14:24:36.618Z,22.94
2017-10-02T14:26:46.371Z,22.93
2017-10-02T14:28:53.096Z,22.95
2017-10-02T14:30:58.989Z,22.88
2017-10-02T14:33:07.883Z,22.99
2017-10-02T14:35:14.438Z,22.90
2017-10-02T14:37:31.047Z,22.86
2017-10-02T14:39:38.944Z,22.75
2017-10-02T14:41:44.974Z,22.89
2017-10-02T14:43:51.817Z,22.84
2017-10-02T14:45:57.690Z,22.97
2017-10-02T14:48:03.015Z,23.05
2017-10-02T14:50:08.832Z,23.01
2017-10-02T14:52:15.147Z,22.90
2017-10-02T14:54:23.794Z,22.78
2017-10-02T14:56:30.978Z,22.99
2017-10-02T14:58:39.922Z,23.11
2017-10-02T15:00:45.424Z,22.90
2017-10-02T15:02:51.823Z,22.84
2017-10-02T15:04:57.730Z,22.47
2017-10-02T15:07:04.257Z,22.64
2017-10-02T15:09:10.774Z,22.67
2017-10-02T15:11:19.447Z,22.77
2017-10-02T15:13:27.807Z,22.97
2017-10-02T15:15:35.035Z,22.92
2017-10-02T15:17:41.294Z,22.73
2017-10-02T15:19:48.085Z,23.00
2017-10-02T15:21:54.789Z,23.14
2017-10-02T15:24:01.214Z,23.23
2017-10-02T15:26:09.835Z,23.11
2017-10-02T15:28:16.918Z,22.93
2017-10-02T15:30:25.921Z,23.04
2017-10-02T15:32:35.739Z,23.15
2017-10-02T15:34:49.297Z,23.06
2017-10-02T15:36:58.107Z,23.12
2017-10-02T15:39:08.134Z,23.23
2017-10-02T15:41:17.489Z,23.26
2017-10-02T15:43:28.783Z,23.14
2017-10-02T15:45:38.416Z,23.23
2017-10-02T15:47:49.351Z,23.17
2017-10-02T15:49:57.018Z,23.15
2017-10-02T15:52:07.990Z,23.02
2017-10-02T15:54:18.887Z,22.80
2017-10-02T15:56:34.920Z,23.01
2017-10-02T15:58:54.062Z,23.30
2017-10-02T16:01:03.535Z,23.47
2017-10-02T16:03:10.290Z,23.42
2017-10-02T16:05:18.021Z,23.57
2017-10-02T16:07:28.677Z,23.52
2017-10-02T16:09:38.680Z,23.52
2017-10-02T16:11:45.214Z,23.51
2017-10-02T16:13:51.769Z,23.57
2017-10-02T16:16:01.061Z,23.60
2017-10-02T16:18:10.876Z,23.74
2017-10-02T16:20:18.632Z,23.63
2017-10-02T16:22:34.450Z,23.46
2017-10-02T16:27:04.458Z,23.43
2017-10-02T16:29:18.402Z,23.44
2017-10-02T17:54:10.205Z,23.33
2017-10-02T17:56:22.869Z,23.26
2017-10-02T17:58:32.789Z,22.99
2017-10-02T18:01:18.371Z,23.07
2017-10-02T18:03:26.267Z,22.99
2017-10-02T18:05:38.514Z,23.02
2017-10-02T18:07:46.233Z,22.90
2017-10-02T18:10:01.582Z,22.71
2017-10-02T18:12:33.250Z,22.80
2017-10-02T18:15:00.599Z,22.90
2017-10-02T18:20:01.609Z,23.05
2017-10-02T18:22:09.450Z,22.91
2017-10-02T18:24:15.410Z,23.20
2017-10-02T18:26:32.851Z,23.30
2017-10-02T18:28:40.721Z,23.09
2017-10-02T18:30:51.396Z,23.05
2017-10-02T18:32:59.764Z,23.06
2017-10-02T18:35:41.258Z,22.95
2017-10-02T18:37:57.309Z,22.92
2017-10-02T18:40:10.490Z,23.19
2017-10-02T18:42:21.606Z,23.07
2017-10-02T18:44:28.832Z,23.25
2017-10-02T18:46:39.858Z,23.12
2017-10-02T18:48:48.781Z,23.00
2017-10-02T18:50:56.788Z,22.71
2017-10-02T18:53:02.952Z,22.82
2017-10-02T18:55:13.001Z,23.16
2017-10-02T18:57:21.348Z,23.03
2017-10-02T18:59:29.363Z,23.11
2017-10-02T19:01:41.158Z,23.02
2017-10-02T19:03:49.169Z,23.14
2017-10-02T19:05:56.120Z,23.30
2017-10-02T19:08:05.355Z,22.83
2017-10-02T19:10:14.051Z,22.92
2017-10-02T19:12:26.725Z,22.74
2017-10-02T19:14:38.527Z,22.68
2017-10-02T19:16:48.999Z,22.80
2017-10-02T19:18:55.078Z,22.81
2017-10-02T19:21:05.792Z,22.83
2017-10-02T19:23:17.825Z,22.98
2017-10-02T19:25:28.941Z,22.74
2017-10-02T19:29:03.641Z,22.75
2017-10-02T19:31:12.564Z,22.66
2017-10-02T19:33:22.228Z,22.70
2017-10-02T19:35:30.136Z,22.60
2017-10-02T19:37:42.728Z,22.67
2017-10-02T19:39:50.548Z,22.63
2017-10-02T19:41:57.598Z,22.73
2017-10-02T19:44:05.974Z,22.69
2017-10-02T19:46:13.347Z,22.81
2017-10-02T19:48:20.252Z,22.76
2017-10-02T19:50:29.221Z,22.82
2017-10-02T19:52:39.004Z,22.72
2017-10-02T19:54:54.365Z,22.88
2017-10-02T19:57:00.255Z,23.13
2017-10-02T19:59:10.497Z,22.96
2017-10-02T20:01:19.779Z,23.25
2017-10-02T20:03:31.103Z,23.63
2017-10-02T20:05:42.011Z,23.46
2017-10-02T20:07:48.819Z,23.47
2017-10-02T20:09:59.589Z,23.36
2017-10-02T20:12:09.803Z,23.34
2017-10-02T20:14:17.643Z,23.42
2017-10-02T20:16:24.307Z,23.61
2017-10-02T20:20:47.892Z,23.45
2017-10-02T20:22:57.341Z,23.25
2017-10-02T20:25:04.211Z,23.39
2017-10-02T20:27:15.706Z,23.46
2017-10-02T20:29:22.796Z,23.31
2017-10-02T20:31:50.710Z,23.19
2017-10-02T20:34:02.586Z,23.21
2017-10-02T20:36:12.049Z,23.20
2017-10-02T20:38:20.682Z,22.95
2017-10-02T20:40:28.912Z,23.05
2017-10-02T20:42:40.195Z,23.08
2017-10-02T20:44:48.660Z,23.13
2017-10-02T20:46:59.609Z,23.27
2017-10-02T20:49:07.119Z,23.30
2017-10-02T20:51:13.927Z,23.37
2017-10-02T20:53:20.926Z,23.56
2017-10-02T20:55:28.746Z,23.50
2017-10-02T20:57:40.052Z,23.55
2017-10-02T20:59:51.396Z,23.46
2017-10-02T21:02:00.027Z,23.58
2017-10-02T21:04:09.945Z,23.51
2017-10-02T21:06:24.402Z,23.39
2017-10-02T21:08:36.553Z,22.92
2017-10-02T21:10:54.770Z,22.89
2017-10-02T21:13:04.711Z,22.66
2017-10-02T21:15:12.144Z,22.64
2017-10-02T21:17:19.593Z,22.74
2017-10-02T21:19:26.996Z,22.50
2017-10-02T21:21:34.862Z,22.49
2017-10-02T21:23:46.963Z,22.34
2017-10-02T21:25:53.705Z,22.47
2017-10-02T21:27:59.347Z,22.16
2017-10-02T21:30:08.474Z,22.12
2017-10-02T21:32:14.987Z,22.18
2017-10-02T21:36:46.346Z,22.27
2017-10-02T21:38:54.013Z,22.17
2017-10-02T21:41:01.347Z,22.11
2017-10-02T21:43:07.785Z,22.22
2017-10-02T21:45:14.280Z,22.61
2017-10-02T21:47:21.479Z,22.47
2017-10-02T21:49:29.330Z,22.64
2017-10-02T21:51:36.153Z,22.86
2017-10-02T21:53:44.881Z,22.79
2017-10-02T21:55:53.615Z,22.83
2017-10-02T21:58:00.185Z,22.95
2017-10-02T22:00:08.894Z,22.76
2017-10-02T22:02:16.232Z,22.50
2017-10-02T22:04:23.936Z,22.72
2017-10-02T22:06:40.796Z,22.75
2017-10-02T22:08:52.101Z,22.92
2017-10-02T22:11:00.368Z,22.86
2017-10-02T22:13:08.013Z,23.03
2017-10-02T22:15:21.541Z,22.98
2017-10-02T22:17:30.758Z,23.01
2017-10-02T22:19:43.700Z,22.99
2017-10-02T22:21:51.197Z,22.89
2017-10-02T22:26:28.175Z,22.87
2017-10-02T22:30:51.222Z,23.00
2017-10-02T22:32:57.838Z,23.04
2017-10-02T22:35:03.820Z,23.05
2017-10-02T22:37:09.481Z,23.09
2017-10-02T22:39:16.907Z,23.12
2017-10-02T22:41:24.075Z,23.13
2017-10-02T22:43:31.435Z,23.11
2017-10-02T22:45:44.063Z,23.14
2017-10-02T22:47:52.462Z,23.11
2017-10-02T22:49:58.782Z,23.04
2017-10-02T22:52:05.557Z,22.96
2017-10-02T22:54:15.493Z,23.02
2017-10-02T22:56:22.575Z,23.02
2017-10-02T22:58:28.917Z,23.02
2017-10-02T23:00:38.729Z,23.02
2017-10-02T23:02:49.610Z,22.96
2017-10-02T23:04:57.160Z,22.87
2017-10-02T23:07:04.001Z,22.90
2017-10-02T23:09:13.817Z,22.91
2017-10-02T23:11:21.724Z,22.96
2017-10-02T23:13:30.007Z,22.97
2017-10-02T23:15:38.510Z,23.05
2017-10-02T23:17:49.955Z,22.88
2017-10-02T23:20:00.647Z,22.78
2017-10-02T23:22:22.542Z,22.83
2017-10-02T23:24:39.111Z,22.88
2017-10-02T23:26:53.618Z,22.90
2017-10-02T23:31:34.958Z,22.82
2017-10-02T23:33:47.208Z,22.76
2017-10-02T23:36:21.874Z,22.67
2017-10-02T23:38:54.525Z,22.74
2017-10-02T23:43:55.491Z,22.76
2017-10-02T23:46:16.619Z,22.76
2017-10-02T23:48:24.462Z,23.24
2017-10-02T23:50:30.226Z,23.14
2017-10-02T23:52:36.477Z,22.98
2017-10-02T23:54:46.501Z,22.77
2017-10-02T23:56:52.490Z,22.49
2017-10-02T23:58:59.027Z,22.48
